Rocky Mount, NC

1:09 AM EST on December 28, 2014 (GMT -0500)
Rocky Mount-Wilson Regional | Change Station
CLOSE
Current Station
Airport
Location: Rocky Mount,
Elevation: 157 ft
Nearby Weather Stations
Active Advisory: Flood Warning

Elev 157 ft 35.85 °N, 77.90 °W | Updated 16 minutes ago

Partly Cloudy
Partly Cloudy
49 °F
Feels Like 49 °F
N
6
Wind Variable Wind from SSW

Today
High -- | Low -- °F
--% Chance of Precip.
Yesterday
High -- | Low -- °F
Precip. -- in
7:20 AM 5:05 PM
Waxing Crescent, 44% visible
Pressure 30.15 in
Visibility 10.0 miles
Clouds Clear
Dew Point 41 °F
Humidity 74%
Rainfall 0.00 in
Snow Depth Not available.
UV 0 out of 12
Pollen 1.40 out of 12
Air Quality Not available.
Flu Activity Not available.
METAR KRWI 280553Z AUTO 20005KT 10SM CLR 09/05 A3015 RMK AO2 PRESFR SLP210 T00940050 10094 20067 58017

More Conditions Fewer Conditions

Pressure 30.15 in
Visibility 10.0 miles
Clouds Clear
Dew Point 41 °F
Humidity 74%
Rainfall 0.00 in
Snow Depth Not available.
UV 0 out of 12
Pollen 1.40 out of 12
Air Quality Not available.
Flu Activity Not available.
METAR KRWI 280553Z AUTO 20005KT 10SM CLR 09/05 A3015 RMK AO2 PRESFR SLP210 T00940050 10094 20067 58017

More Conditions Fewer Conditions

10-Day Weather Forecast

Almanac

Astronomy

Dec. 28, 2014 Rise Set
Actual Time
Civil Twilight
Nautical Twilight
Astronomical Twilight
Moon
Length of Visible Light
Length of Day
Tomorrow will be .
, % of the Moon is Illuminated

Today's Extremes

State Highs State Lows

Community

WunderPhotos

Upload Photos

1,781,206 photos uploaded!

WunderBlogs® & News

Nearby

Air Quality

  Air Quality AQ Index Pollutant
Not available.

Snow Depth

Station Depth Elevation

Earthquake Activity

City Distance Mag. Time & Date
Minimum magnitude displayed is 2.5.

Coastal Water Temperatures

Place Temperature

Nearby Weather Stations